sensor_id;sensor_type;location;lat;lon;timestamp;P1;durP1;ratioP1;P2;durP2;ratioP2
15480;SDS011;7842;50.904;6.670;2023-05-20T00:00:49;3.58;;;2.10;;
15480;SDS011;7842;50.904;6.670;2023-05-20T00:03:15;3.00;;;2.40;;
15480;SDS011;7842;50.904;6.670;2023-05-20T00:05:41;4.15;;;2.30;;
15480;SDS011;7842;50.904;6.670;2023-05-20T00:08:07;3.13;;;2.23;;
15480;SDS011;7842;50.904;6.670;2023-05-20T00:10:34;3.17;;;2.20;;
15480;SDS011;7842;50.904;6.670;2023-05-20T00:13:00;2.67;;;2.30;;
15480;SDS011;7842;50.904;6.670;2023-05-20T00:15:26;3.20;;;2.38;;
15480;SDS011;7842;50.904;6.670;2023-05-20T00:17:52;2.67;;;2.20;;
15480;SDS011;7842;50.904;6.670;2023-05-20T00:20:19;4.40;;;2.30;;
15480;SDS011;7842;50.904;6.670;2023-05-20T00:22:44;2.73;;;2.00;;
15480;SDS011;7842;50.904;6.670;2023-05-20T00:25:10;3.20;;;2.17;;
15480;SDS011;7842;50.904;6.670;2023-05-20T00:27:38;3.13;;;2.33;;
15480;SDS011;7842;50.904;6.670;2023-05-20T00:30:07;2.35;;;1.92;;
15480;SDS011;7842;50.904;6.670;2023-05-20T00:32:33;2.10;;;1.90;;
15480;SDS011;7842;50.904;6.670;2023-05-20T00:34:59;2.63;;;2.10;;
15480;SDS011;7842;50.904;6.670;2023-05-20T00:37:25;3.40;;;2.40;;
15480;SDS011;7842;50.904;6.670;2023-05-20T00:39:51;3.33;;;2.40;;
15480;SDS011;7842;50.904;6.670;2023-05-20T00:42:20;2.67;;;2.10;;
15480;SDS011;7842;50.904;6.670;2023-05-20T00:44:49;2.75;;;2.30;;
15480;SDS011;7842;50.904;6.670;2023-05-20T00:47:15;2.95;;;2.35;;
15480;SDS011;7842;50.904;6.670;2023-05-20T00:49:42;3.70;;;2.42;;
15480;SDS011;7842;50.904;6.670;2023-05-20T00:52:12;2.83;;;2.33;;
15480;SDS011;7842;50.904;6.670;2023-05-20T00:54:39;3.88;;;2.30;;
15480;SDS011;7842;50.904;6.670;2023-05-20T00:57:05;3.17;;;2.33;;
15480;SDS011;7842;50.904;6.670;2023-05-20T00:59:35;3.00;;;2.20;;
15480;SDS011;7842;50.904;6.670;2023-05-20T01:02:02;2.45;;;2.13;;
15480;SDS011;7842;50.904;6.670;2023-05-20T01:04:29;3.20;;;2.40;;
15480;SDS011;7842;50.904;6.670;2023-05-20T01:06:55;3.58;;;2.10;;
15480;SDS011;7842;50.904;6.670;2023-05-20T01:09:22;2.73;;;2.10;;
15480;SDS011;7842;50.904;6.670;2023-05-20T01:11:51;4.85;;;2.30;;
15480;SDS011;7842;50.904;6.670;2023-05-20T01:14:23;3.33;;;2.10;;
15480;SDS011;7842;50.904;6.670;2023-05-20T01:16:54;4.63;;;2.27;;
15480;SDS011;7842;50.904;6.670;2023-05-20T01:19:35;2.28;;;2.05;;
15480;SDS011;7842;50.904;6.670;2023-05-20T01:22:06;2.50;;;2.17;;
15480;SDS011;7842;50.904;6.670;2023-05-20T01:24:36;2.88;;;2.08;;
15480;SDS011;7842;50.904;6.670;2023-05-20T01:27:05;2.58;;;1.90;;
15480;SDS011;7842;50.904;6.670;2023-05-20T01:29:34;4.55;;;2.10;;
15480;SDS011;7842;50.904;6.670;2023-05-20T01:32:02;2.53;;;2.10;;
15480;SDS011;7842;50.904;6.670;2023-05-20T01:34:32;2.78;;;2.10;;
15480;SDS011;7842;50.904;6.670;2023-05-20T01:37:00;2.30;;;2.10;;
15480;SDS011;7842;50.904;6.670;2023-05-20T01:39:27;2.60;;;1.90;;
15480;SDS011;7842;50.904;6.670;2023-05-20T01:41:54;3.45;;;2.65;;
15480;SDS011;7842;50.904;6.670;2023-05-20T01:44:20;2.67;;;2.45;;
15480;SDS011;7842;50.904;6.670;2023-05-20T01:46:49;3.85;;;2.83;;
15480;SDS011;7842;50.904;6.670;2023-05-20T01:49:15;3.08;;;2.78;;
15480;SDS011;7842;50.904;6.670;2023-05-20T01:51:40;3.03;;;2.70;;
15480;SDS011;7842;50.904;6.670;2023-05-20T01:54:06;3.00;;;2.70;;
15480;SDS011;7842;50.904;6.670;2023-05-20T01:56:31;3.47;;;2.85;;
15480;SDS011;7842;50.904;6.670;2023-05-20T01:58:57;3.70;;;2.80;;
15480;SDS011;7842;50.904;6.670;2023-05-20T02:01:23;4.63;;;3.00;;
15480;SDS011;7842;50.904;6.670;2023-05-20T02:03:48;3.60;;;3.00;;
15480;SDS011;7842;50.904;6.670;2023-05-20T02:06:14;5.78;;;2.90;;
15480;SDS011;7842;50.904;6.670;2023-05-20T02:08:40;4.10;;;2.90;;
15480;SDS011;7842;50.904;6.670;2023-05-20T02:11:05;4.50;;;2.93;;
15480;SDS011;7842;50.904;6.670;2023-05-20T02:13:31;3.73;;;3.10;;
15480;SDS011;7842;50.904;6.670;2023-05-20T02:15:56;4.15;;;3.20;;
15480;SDS011;7842;50.904;6.670;2023-05-20T02:18:22;5.47;;;3.27;;
15480;SDS011;7842;50.904;6.670;2023-05-20T02:20:50;3.30;;;2.95;;
15480;SDS011;7842;50.904;6.670;2023-05-20T02:23:16;4.55;;;3.00;;
15480;SDS011;7842;50.904;6.670;2023-05-20T02:25:42;4.03;;;3.10;;
15480;SDS011;7842;50.904;6.670;2023-05-20T02:28:08;4.13;;;3.40;;
15480;SDS011;7842;50.904;6.670;2023-05-20T02:30:35;4.25;;;3.10;;
15480;SDS011;7842;50.904;6.670;2023-05-20T02:33:03;5.03;;;3.30;;
15480;SDS011;7842;50.904;6.670;2023-05-20T02:35:29;3.80;;;3.20;;
15480;SDS011;7842;50.904;6.670;2023-05-20T02:37:55;3.77;;;3.20;;
15480;SDS011;7842;50.904;6.670;2023-05-20T02:40:21;4.33;;;2.83;;
15480;SDS011;7842;50.904;6.670;2023-05-20T02:42:47;4.78;;;3.13;;
15480;SDS011;7842;50.904;6.670;2023-05-20T02:45:12;3.67;;;3.28;;
15480;SDS011;7842;50.904;6.670;2023-05-20T02:47:38;3.83;;;2.92;;
15480;SDS011;7842;50.904;6.670;2023-05-20T02:50:04;3.93;;;3.00;;
15480;SDS011;7842;50.904;6.670;2023-05-20T02:52:30;4.50;;;3.00;;
15480;SDS011;7842;50.904;6.670;2023-05-20T02:54:56;5.07;;;3.20;;
15480;SDS011;7842;50.904;6.670;2023-05-20T02:57:22;3.57;;;2.93;;
15480;SDS011;7842;50.904;6.670;2023-05-20T02:59:48;3.33;;;2.80;;
15480;SDS011;7842;50.904;6.670;2023-05-20T03:02:13;4.20;;;3.15;;
15480;SDS011;7842;50.904;6.670;2023-05-20T03:04:39;3.63;;;3.00;;
15480;SDS011;7842;50.904;6.670;2023-05-20T03:07:05;4.18;;;3.38;;
15480;SDS011;7842;50.904;6.670;2023-05-20T03:09:31;4.95;;;3.10;;
15480;SDS011;7842;50.904;6.670;2023-05-20T03:11:57;3.33;;;2.97;;
15480;SDS011;7842;50.904;6.670;2023-05-20T03:14:23;4.20;;;3.10;;
15480;SDS011;7842;50.904;6.670;2023-05-20T03:16:48;4.28;;;3.50;;
15480;SDS011;7842;50.904;6.670;2023-05-20T03:19:14;4.07;;;3.10;;
15480;SDS011;7842;50.904;6.670;2023-05-20T03:21:40;4.53;;;3.37;;
15480;SDS011;7842;50.904;6.670;2023-05-20T03:24:07;3.92;;;3.22;;
15480;SDS011;7842;50.904;6.670;2023-05-20T03:26:34;3.92;;;3.05;;
15480;SDS011;7842;50.904;6.670;2023-05-20T03:29:01;4.75;;;3.20;;
15480;SDS011;7842;50.904;6.670;2023-05-20T03:31:27;4.27;;;3.17;;
15480;SDS011;7842;50.904;6.670;2023-05-20T03:33:53;3.83;;;3.03;;
15480;SDS011;7842;50.904;6.670;2023-05-20T03:36:18;3.60;;;3.20;;
15480;SDS011;7842;50.904;6.670;2023-05-20T03:38:44;3.58;;;3.03;;
15480;SDS011;7842;50.904;6.670;2023-05-20T03:41:10;3.90;;;3.13;;
15480;SDS011;7842;50.904;6.670;2023-05-20T03:43:35;4.30;;;3.40;;
15480;SDS011;7842;50.904;6.670;2023-05-20T03:46:01;4.33;;;3.37;;
15480;SDS011;7842;50.904;6.670;2023-05-20T03:48:27;4.13;;;3.08;;
15480;SDS011;7842;50.904;6.670;2023-05-20T03:50:52;3.97;;;3.20;;
15480;SDS011;7842;50.904;6.670;2023-05-20T03:53:18;3.87;;;3.47;;
15480;SDS011;7842;50.904;6.670;2023-05-20T03:55:44;4.00;;;3.35;;
15480;SDS011;7842;50.904;6.670;2023-05-20T03:58:10;4.78;;;3.20;;
15480;SDS011;7842;50.904;6.670;2023-05-20T04:00:37;3.72;;;3.10;;
15480;SDS011;7842;50.904;6.670;2023-05-20T04:03:03;3.90;;;3.15;;
15480;SDS011;7842;50.904;6.670;2023-05-20T04:05:29;6.47;;;3.50;;
15480;SDS011;7842;50.904;6.670;2023-05-20T04:07:55;4.13;;;3.60;;
15480;SDS011;7842;50.904;6.670;2023-05-20T04:10:21;5.40;;;3.50;;
15480;SDS011;7842;50.904;6.670;2023-05-20T04:12:47;4.17;;;3.37;;
15480;SDS011;7842;50.904;6.670;2023-05-20T04:15:13;4.18;;;3.40;;
15480;SDS011;7842;50.904;6.670;2023-05-20T04:17:39;4.15;;;3.35;;
15480;SDS011;7842;50.904;6.670;2023-05-20T04:20:05;4.68;;;3.15;;
15480;SDS011;7842;50.904;6.670;2023-05-20T04:22:32;4.72;;;3.47;;
15480;SDS011;7842;50.904;6.670;2023-05-20T04:24:58;3.95;;;3.55;;
15480;SDS011;7842;50.904;6.670;2023-05-20T04:27:24;5.95;;;3.63;;
15480;SDS011;7842;50.904;6.670;2023-05-20T04:29:50;4.70;;;3.70;;
15480;SDS011;7842;50.904;6.670;2023-05-20T04:32:17;4.28;;;3.55;;
15480;SDS011;7842;50.904;6.670;2023-05-20T04:34:43;4.93;;;3.40;;
15480;SDS011;7842;50.904;6.670;2023-05-20T04:37:10;5.53;;;3.85;;
15480;SDS011;7842;50.904;6.670;2023-05-20T04:39:36;7.05;;;3.65;;
15480;SDS011;7842;50.904;6.670;2023-05-20T04:42:02;4.47;;;3.42;;
15480;SDS011;7842;50.904;6.670;2023-05-20T04:44:29;4.40;;;3.63;;
15480;SDS011;7842;50.904;6.670;2023-05-20T04:46:55;4.95;;;3.70;;
15480;SDS011;7842;50.904;6.670;2023-05-20T04:49:23;5.10;;;3.63;;
15480;SDS011;7842;50.904;6.670;2023-05-20T04:51:53;3.67;;;3.30;;
15480;SDS011;7842;50.904;6.670;2023-05-20T04:54:19;4.23;;;3.47;;
15480;SDS011;7842;50.904;6.670;2023-05-20T04:56:45;3.90;;;3.40;;
15480;SDS011;7842;50.904;6.670;2023-05-20T04:59:11;4.30;;;3.50;;
15480;SDS011;7842;50.904;6.670;2023-05-20T05:01:37;5.25;;;3.30;;
15480;SDS011;7842;50.904;6.670;2023-05-20T05:04:02;4.22;;;3.38;;
15480;SDS011;7842;50.904;6.670;2023-05-20T05:06:28;4.18;;;3.20;;
15480;SDS011;7842;50.904;6.670;2023-05-20T05:08:54;4.93;;;3.40;;
15480;SDS011;7842;50.904;6.670;2023-05-20T05:11:20;5.43;;;3.78;;
15480;SDS011;7842;50.904;6.670;2023-05-20T05:13:46;5.03;;;3.80;;
15480;SDS011;7842;50.904;6.670;2023-05-20T05:16:11;4.65;;;3.45;;
15480;SDS011;7842;50.904;6.670;2023-05-20T05:18:37;4.45;;;3.45;;
15480;SDS011;7842;50.904;6.670;2023-05-20T05:21:03;5.43;;;3.43;;
15480;SDS011;7842;50.904;6.670;2023-05-20T05:23:30;3.80;;;3.30;;
15480;SDS011;7842;50.904;6.670;2023-05-20T05:25:56;4.72;;;3.78;;
15480;SDS011;7842;50.904;6.670;2023-05-20T05:28:22;6.25;;;3.60;;
15480;SDS011;7842;50.904;6.670;2023-05-20T05:30:48;4.30;;;3.60;;
15480;SDS011;7842;50.904;6.670;2023-05-20T05:33:14;3.55;;;3.25;;
15480;SDS011;7842;50.904;6.670;2023-05-20T05:35:40;5.10;;;3.85;;
15480;SDS011;7842;50.904;6.670;2023-05-20T05:38:07;7.20;;;3.90;;
15480;SDS011;7842;50.904;6.670;2023-05-20T05:40:33;4.85;;;3.33;;
15480;SDS011;7842;50.904;6.670;2023-05-20T05:42:59;4.00;;;3.60;;
15480;SDS011;7842;50.904;6.670;2023-05-20T05:45:25;4.80;;;3.50;;
15480;SDS011;7842;50.904;6.670;2023-05-20T05:47:50;3.80;;;3.40;;
15480;SDS011;7842;50.904;6.670;2023-05-20T05:50:16;4.63;;;3.63;;
15480;SDS011;7842;50.904;6.670;2023-05-20T05:52:41;4.60;;;3.37;;
15480;SDS011;7842;50.904;6.670;2023-05-20T05:55:08;3.97;;;3.53;;
15480;SDS011;7842;50.904;6.670;2023-05-20T05:57:34;4.60;;;3.78;;
15480;SDS011;7842;50.904;6.670;2023-05-20T06:00:00;3.53;;;3.22;;
15480;SDS011;7842;50.904;6.670;2023-05-20T06:02:25;4.80;;;3.40;;
15480;SDS011;7842;50.904;6.670;2023-05-20T06:04:51;4.88;;;3.70;;
15480;SDS011;7842;50.904;6.670;2023-05-20T06:07:17;4.65;;;3.70;;
15480;SDS011;7842;50.904;6.670;2023-05-20T06:09:43;4.18;;;3.20;;
15480;SDS011;7842;50.904;6.670;2023-05-20T06:12:09;4.47;;;3.58;;
15480;SDS011;7842;50.904;6.670;2023-05-20T06:14:34;4.07;;;3.50;;
15480;SDS011;7842;50.904;6.670;2023-05-20T06:17:00;4.82;;;3.80;;
15480;SDS011;7842;50.904;6.670;2023-05-20T06:19:26;4.10;;;3.70;;
15480;SDS011;7842;50.904;6.670;2023-05-20T06:21:52;4.63;;;3.80;;
15480;SDS011;7842;50.904;6.670;2023-05-20T06:24:18;5.68;;;3.67;;
15480;SDS011;7842;50.904;6.670;2023-05-20T06:26:43;4.20;;;3.67;;
15480;SDS011;7842;50.904;6.670;2023-05-20T06:29:10;5.60;;;3.60;;
15480;SDS011;7842;50.904;6.670;2023-05-20T06:31:36;3.97;;;3.58;;
15480;SDS011;7842;50.904;6.670;2023-05-20T06:34:01;5.15;;;3.60;;
15480;SDS011;7842;50.904;6.670;2023-05-20T06:36:27;4.07;;;3.30;;
15480;SDS011;7842;50.904;6.670;2023-05-20T06:38:53;4.53;;;3.60;;
15480;SDS011;7842;50.904;6.670;2023-05-20T06:41:18;3.80;;;3.40;;
15480;SDS011;7842;50.904;6.670;2023-05-20T06:43:46;4.18;;;3.70;;
15480;SDS011;7842;50.904;6.670;2023-05-20T06:46:12;4.68;;;3.58;;
15480;SDS011;7842;50.904;6.670;2023-05-20T06:48:37;4.53;;;3.50;;
15480;SDS011;7842;50.904;6.670;2023-05-20T06:51:05;4.30;;;3.80;;
15480;SDS011;7842;50.904;6.670;2023-05-20T06:53:32;4.53;;;3.70;;
15480;SDS011;7842;50.904;6.670;2023-05-20T06:55:57;3.93;;;3.53;;
15480;SDS011;7842;50.904;6.670;2023-05-20T06:58:23;4.53;;;3.73;;
15480;SDS011;7842;50.904;6.670;2023-05-20T07:00:49;4.75;;;3.65;;
15480;SDS011;7842;50.904;6.670;2023-05-20T07:03:14;4.13;;;3.60;;
15480;SDS011;7842;50.904;6.670;2023-05-20T07:05:40;5.27;;;3.30;;
15480;SDS011;7842;50.904;6.670;2023-05-20T07:08:06;4.87;;;3.57;;
15480;SDS011;7842;50.904;6.670;2023-05-20T07:10:34;4.00;;;3.40;;
15480;SDS011;7842;50.904;6.670;2023-05-20T07:13:00;4.77;;;3.50;;
15480;SDS011;7842;50.904;6.670;2023-05-20T07:15:25;4.15;;;3.60;;
15480;SDS011;7842;50.904;6.670;2023-05-20T07:17:51;4.28;;;3.30;;
15480;SDS011;7842;50.904;6.670;2023-05-20T07:20:17;5.30;;;3.60;;
15480;SDS011;7842;50.904;6.670;2023-05-20T07:22:44;3.92;;;3.40;;
15480;SDS011;7842;50.904;6.670;2023-05-20T07:25:11;4.65;;;3.92;;
15480;SDS011;7842;50.904;6.670;2023-05-20T07:27:37;4.80;;;3.90;;
15480;SDS011;7842;50.904;6.670;2023-05-20T07:30:02;5.73;;;3.80;;
15480;SDS011;7842;50.904;6.670;2023-05-20T07:32:28;4.70;;;3.67;;
15480;SDS011;7842;50.904;6.670;2023-05-20T07:34:54;4.22;;;3.45;;
15480;SDS011;7842;50.904;6.670;2023-05-20T07:37:19;5.37;;;3.73;;
15480;SDS011;7842;50.904;6.670;2023-05-20T07:39:45;4.90;;;3.60;;
15480;SDS011;7842;50.904;6.670;2023-05-20T07:42:11;4.47;;;3.83;;
15480;SDS011;7842;50.904;6.670;2023-05-20T07:44:36;5.53;;;3.80;;
15480;SDS011;7842;50.904;6.670;2023-05-20T07:47:03;4.68;;;3.95;;
15480;SDS011;7842;50.904;6.670;2023-05-20T07:49:28;4.82;;;3.80;;
15480;SDS011;7842;50.904;6.670;2023-05-20T07:51:54;4.13;;;3.73;;
15480;SDS011;7842;50.904;6.670;2023-05-20T07:54:20;5.05;;;3.90;;
15480;SDS011;7842;50.904;6.670;2023-05-20T07:56:45;5.63;;;3.60;;
15480;SDS011;7842;50.904;6.670;2023-05-20T07:59:11;5.90;;;4.10;;
15480;SDS011;7842;50.904;6.670;2023-05-20T08:01:36;4.28;;;3.85;;
15480;SDS011;7842;50.904;6.670;2023-05-20T08:04:05;4.28;;;3.88;;
15480;SDS011;7842;50.904;6.670;2023-05-20T08:06:30;8.20;;;4.18;;
15480;SDS011;7842;50.904;6.670;2023-05-20T08:08:56;4.13;;;3.72;;
15480;SDS011;7842;50.904;6.670;2023-05-20T08:11:22;7.60;;;4.53;;
15480;SDS011;7842;50.904;6.670;2023-05-20T08:13:47;8.93;;;4.50;;
15480;SDS011;7842;50.904;6.670;2023-05-20T08:16:14;4.55;;;4.00;;
15480;SDS011;7842;50.904;6.670;2023-05-20T08:18:39;5.78;;;4.32;;
15480;SDS011;7842;50.904;6.670;2023-05-20T08:21:05;5.63;;;4.25;;
15480;SDS011;7842;50.904;6.670;2023-05-20T08:23:34;4.40;;;4.00;;
15480;SDS011;7842;50.904;6.670;2023-05-20T08:26:01;4.90;;;4.32;;
15480;SDS011;7842;50.904;6.670;2023-05-20T08:28:27;5.40;;;4.07;;
15480;SDS011;7842;50.904;6.670;2023-05-20T08:30:53;4.45;;;4.00;;
15480;SDS011;7842;50.904;6.670;2023-05-20T08:33:19;5.07;;;4.20;;
15480;SDS011;7842;50.904;6.670;2023-05-20T08:35:46;5.40;;;4.07;;
15480;SDS011;7842;50.904;6.670;2023-05-20T08:38:14;4.85;;;4.13;;
15480;SDS011;7842;50.904;6.670;2023-05-20T08:40:40;4.93;;;3.87;;
15480;SDS011;7842;50.904;6.670;2023-05-20T08:43:05;5.90;;;4.00;;
15480;SDS011;7842;50.904;6.670;2023-05-20T08:45:32;4.40;;;3.95;;
15480;SDS011;7842;50.904;6.670;2023-05-20T08:47:58;5.18;;;4.40;;
15480;SDS011;7842;50.904;6.670;2023-05-20T08:50:25;5.20;;;4.30;;
15480;SDS011;7842;50.904;6.670;2023-05-20T08:52:52;5.38;;;4.38;;
15480;SDS011;7842;50.904;6.670;2023-05-20T08:55:23;5.55;;;4.25;;
15480;SDS011;7842;50.904;6.670;2023-05-20T08:57:51;5.85;;;4.28;;
15480;SDS011;7842;50.904;6.670;2023-05-20T09:00:18;4.70;;;4.15;;
15480;SDS011;7842;50.904;6.670;2023-05-20T09:02:46;6.65;;;4.40;;
15480;SDS011;7842;50.904;6.670;2023-05-20T09:05:11;5.43;;;4.93;;
15480;SDS011;7842;50.904;6.670;2023-05-20T09:07:37;5.20;;;4.50;;
15480;SDS011;7842;50.904;6.670;2023-05-20T09:10:04;5.50;;;4.35;;
15480;SDS011;7842;50.904;6.670;2023-05-20T09:12:30;5.07;;;4.13;;
15480;SDS011;7842;50.904;6.670;2023-05-20T09:14:56;6.23;;;4.10;;
15480;SDS011;7842;50.904;6.670;2023-05-20T09:17:22;5.20;;;4.70;;
15480;SDS011;7842;50.904;6.670;2023-05-20T09:19:51;4.80;;;4.18;;
15480;SDS011;7842;50.904;6.670;2023-05-20T09:22:35;4.43;;;4.03;;
15480;SDS011;7842;50.904;6.670;2023-05-20T09:25:03;5.47;;;4.23;;
15480;SDS011;7842;50.904;6.670;2023-05-20T09:27:29;5.30;;;4.13;;
15480;SDS011;7842;50.904;6.670;2023-05-20T09:29:54;5.03;;;4.23;;
15480;SDS011;7842;50.904;6.670;2023-05-20T09:32:20;4.75;;;4.07;;
15480;SDS011;7842;50.904;6.670;2023-05-20T09:34:48;5.05;;;4.47;;
15480;SDS011;7842;50.904;6.670;2023-05-20T09:37:16;6.18;;;4.38;;
15480;SDS011;7842;50.904;6.670;2023-05-20T09:39:52;6.30;;;4.30;;
15480;SDS011;7842;50.904;6.670;2023-05-20T09:42:27;5.30;;;4.38;;
15480;SDS011;7842;50.904;6.670;2023-05-20T09:44:54;6.82;;;4.97;;
15480;SDS011;7842;50.904;6.670;2023-05-20T09:47:22;6.00;;;4.50;;
15480;SDS011;7842;50.904;6.670;2023-05-20T09:49:49;7.85;;;4.93;;
15480;SDS011;7842;50.904;6.670;2023-05-20T09:52:16;6.25;;;4.13;;
15480;SDS011;7842;50.904;6.670;2023-05-20T09:54:43;5.57;;;4.40;;
15480;SDS011;7842;50.904;6.670;2023-05-20T09:57:09;5.57;;;4.30;;
15480;SDS011;7842;50.904;6.670;2023-05-20T09:59:36;4.90;;;4.40;;
15480;SDS011;7842;50.904;6.670;2023-05-20T10:02:02;5.20;;;4.70;;
15480;SDS011;7842;50.904;6.670;2023-05-20T10:04:30;6.40;;;4.63;;
15480;SDS011;7842;50.904;6.670;2023-05-20T10:07:05;5.63;;;4.68;;
15480;SDS011;7842;50.904;6.670;2023-05-20T10:09:53;5.20;;;4.50;;
15480;SDS011;7842;50.904;6.670;2023-05-20T10:18:24;6.73;;;5.00;;
15480;SDS011;7842;50.904;6.670;2023-05-20T10:20:54;5.07;;;4.57;;
15480;SDS011;7842;50.904;6.670;2023-05-20T10:23:21;5.35;;;4.68;;
15480;SDS011;7842;50.904;6.670;2023-05-20T10:25:51;6.38;;;4.88;;
15480;SDS011;7842;50.904;6.670;2023-05-20T10:28:29;5.50;;;4.63;;
15480;SDS011;7842;50.904;6.670;2023-05-20T10:30:57;6.90;;;4.63;;
15480;SDS011;7842;50.904;6.670;2023-05-20T10:33:24;7.55;;;4.90;;
15480;SDS011;7842;50.904;6.670;2023-05-20T10:35:52;5.80;;;4.30;;
15480;SDS011;7842;50.904;6.670;2023-05-20T10:38:19;5.18;;;4.68;;
15480;SDS011;7842;50.904;6.670;2023-05-20T10:40:48;6.25;;;5.47;;
15480;SDS011;7842;50.904;6.670;2023-05-20T10:43:14;5.30;;;4.45;;
15480;SDS011;7842;50.904;6.670;2023-05-20T10:50:55;6.20;;;4.80;;
15480;SDS011;7842;50.904;6.670;2023-05-20T10:53:23;6.10;;;5.10;;
15480;SDS011;7842;50.904;6.670;2023-05-20T10:55:51;6.18;;;5.18;;
15480;SDS011;7842;50.904;6.670;2023-05-20T10:58:18;5.63;;;5.00;;
15480;SDS011;7842;50.904;6.670;2023-05-20T11:00:48;7.43;;;5.15;;
15480;SDS011;7842;50.904;6.670;2023-05-20T11:03:20;8.88;;;5.30;;
15480;SDS011;7842;50.904;6.670;2023-05-20T11:05:46;5.60;;;4.88;;
15480;SDS011;7842;50.904;6.670;2023-05-20T11:08:12;6.30;;;5.50;;
15480;SDS011;7842;50.904;6.670;2023-05-20T11:10:40;6.43;;;5.10;;
15480;SDS011;7842;50.904;6.670;2023-05-20T11:13:06;6.32;;;5.07;;
15480;SDS011;7842;50.904;6.670;2023-05-20T11:15:33;6.63;;;5.20;;
15480;SDS011;7842;50.904;6.670;2023-05-20T11:18:00;6.38;;;5.32;;
15480;SDS011;7842;50.904;6.670;2023-05-20T11:20:26;5.78;;;5.07;;
15480;SDS011;7842;50.904;6.670;2023-05-20T11:22:53;6.00;;;5.30;;
15480;SDS011;7842;50.904;6.670;2023-05-20T11:25:20;6.10;;;5.10;;
15480;SDS011;7842;50.904;6.670;2023-05-20T11:27:47;5.85;;;4.93;;
15480;SDS011;7842;50.904;6.670;2023-05-20T11:30:14;5.85;;;5.25;;
15480;SDS011;7842;50.904;6.670;2023-05-20T11:32:41;6.13;;;4.80;;
15480;SDS011;7842;50.904;6.670;2023-05-20T11:35:18;5.32;;;4.78;;
15480;SDS011;7842;50.904;6.670;2023-05-20T11:37:44;5.40;;;4.90;;
15480;SDS011;7842;50.904;6.670;2023-05-20T11:40:10;5.87;;;4.67;;
15480;SDS011;7842;50.904;6.670;2023-05-20T11:42:37;6.18;;;4.88;;
15480;SDS011;7842;50.904;6.670;2023-05-20T11:45:03;5.70;;;4.78;;
15480;SDS011;7842;50.904;6.670;2023-05-20T11:47:29;6.78;;;4.90;;
15480;SDS011;7842;50.904;6.670;2023-05-20T11:49:56;7.40;;;5.38;;
15480;SDS011;7842;50.904;6.670;2023-05-20T11:52:21;6.55;;;5.28;;
15480;SDS011;7842;50.904;6.670;2023-05-20T11:54:51;6.13;;;5.40;;
15480;SDS011;7842;50.904;6.670;2023-05-20T11:57:18;6.05;;;5.15;;
15480;SDS011;7842;50.904;6.670;2023-05-20T11:59:45;6.90;;;5.28;;
15480;SDS011;7842;50.904;6.670;2023-05-20T12:02:11;6.35;;;4.93;;
15480;SDS011;7842;50.904;6.670;2023-05-20T12:04:37;7.67;;;5.10;;
15480;SDS011;7842;50.904;6.670;2023-05-20T12:07:03;5.55;;;5.05;;
15480;SDS011;7842;50.904;6.670;2023-05-20T12:09:33;6.75;;;5.78;;
15480;SDS011;7842;50.904;6.670;2023-05-20T12:11:58;6.47;;;5.60;;
15480;SDS011;7842;50.904;6.670;2023-05-20T12:14:24;8.23;;;5.47;;
15480;SDS011;7842;50.904;6.670;2023-05-20T12:16:49;8.30;;;5.82;;
15480;SDS011;7842;50.904;6.670;2023-05-20T12:19:17;8.15;;;5.80;;
15480;SDS011;7842;50.904;6.670;2023-05-20T12:21:43;6.97;;;5.32;;
15480;SDS011;7842;50.904;6.670;2023-05-20T12:24:11;6.45;;;5.40;;
15480;SDS011;7842;50.904;6.670;2023-05-20T12:26:37;6.88;;;5.25;;
15480;SDS011;7842;50.904;6.670;2023-05-20T12:29:02;7.87;;;5.73;;
15480;SDS011;7842;50.904;6.670;2023-05-20T12:31:28;7.25;;;5.88;;
15480;SDS011;7842;50.904;6.670;2023-05-20T12:33:53;6.20;;;5.60;;
15480;SDS011;7842;50.904;6.670;2023-05-20T12:36:19;7.47;;;6.00;;
15480;SDS011;7842;50.904;6.670;2023-05-20T12:38:45;6.15;;;5.55;;
15480;SDS011;7842;50.904;6.670;2023-05-20T12:41:11;6.70;;;6.00;;
15480;SDS011;7842;50.904;6.670;2023-05-20T12:43:37;6.87;;;5.83;;
15480;SDS011;7842;50.904;6.670;2023-05-20T12:46:02;7.30;;;6.50;;
15480;SDS011;7842;50.904;6.670;2023-05-20T12:48:28;6.63;;;5.78;;
15480;SDS011;7842;50.904;6.670;2023-05-20T12:50:54;7.45;;;6.65;;
15480;SDS011;7842;50.904;6.670;2023-05-20T12:53:20;6.70;;;6.00;;
15480;SDS011;7842;50.904;6.670;2023-05-20T12:55:45;7.33;;;6.50;;
15480;SDS011;7842;50.904;6.670;2023-05-20T12:58:11;7.93;;;7.00;;
15480;SDS011;7842;50.904;6.670;2023-05-20T13:00:36;7.17;;;6.33;;
15480;SDS011;7842;50.904;6.670;2023-05-20T13:03:02;7.60;;;6.07;;
15480;SDS011;7842;50.904;6.670;2023-05-20T13:05:28;7.43;;;6.33;;
15480;SDS011;7842;50.904;6.670;2023-05-20T13:07:53;7.93;;;6.30;;
15480;SDS011;7842;50.904;6.670;2023-05-20T13:10:19;7.35;;;6.30;;
15480;SDS011;7842;50.904;6.670;2023-05-20T13:12:45;8.70;;;6.80;;
15480;SDS011;7842;50.904;6.670;2023-05-20T13:15:11;7.40;;;6.40;;
15480;SDS011;7842;50.904;6.670;2023-05-20T13:17:38;6.95;;;6.25;;
15480;SDS011;7842;50.904;6.670;2023-05-20T13:20:05;7.68;;;5.80;;
15480;SDS011;7842;50.904;6.670;2023-05-20T13:22:31;7.03;;;5.75;;
15480;SDS011;7842;50.904;6.670;2023-05-20T13:24:57;6.80;;;6.10;;
15480;SDS011;7842;50.904;6.670;2023-05-20T13:27:22;7.60;;;6.28;;
15480;SDS011;7842;50.904;6.670;2023-05-20T13:29:48;7.13;;;6.20;;
15480;SDS011;7842;50.904;6.670;2023-05-20T13:32:14;7.23;;;6.53;;
15480;SDS011;7842;50.904;6.670;2023-05-20T13:34:39;7.00;;;6.13;;
15480;SDS011;7842;50.904;6.670;2023-05-20T13:37:05;6.60;;;6.00;;
15480;SDS011;7842;50.904;6.670;2023-05-20T13:39:31;7.00;;;5.75;;
15480;SDS011;7842;50.904;6.670;2023-05-20T13:41:57;6.80;;;5.90;;
15480;SDS011;7842;50.904;6.670;2023-05-20T13:44:23;7.97;;;6.65;;
15480;SDS011;7842;50.904;6.670;2023-05-20T13:46:48;8.23;;;6.00;;
15480;SDS011;7842;50.904;6.670;2023-05-20T13:49:14;7.30;;;5.97;;
15480;SDS011;7842;50.904;6.670;2023-05-20T13:51:39;6.87;;;6.17;;
15480;SDS011;7842;50.904;6.670;2023-05-20T13:54:05;6.60;;;5.77;;
15480;SDS011;7842;50.904;6.670;2023-05-20T13:56:31;6.68;;;5.50;;
15480;SDS011;7842;50.904;6.670;2023-05-20T13:58:57;6.40;;;5.40;;
15480;SDS011;7842;50.904;6.670;2023-05-20T14:01:22;6.03;;;5.37;;
15480;SDS011;7842;50.904;6.670;2023-05-20T14:03:48;6.72;;;5.25;;
15480;SDS011;7842;50.904;6.670;2023-05-20T14:06:14;5.70;;;5.10;;
15480;SDS011;7842;50.904;6.670;2023-05-20T14:08:42;6.05;;;5.00;;
15480;SDS011;7842;50.904;6.670;2023-05-20T14:11:11;5.20;;;4.70;;
15480;SDS011;7842;50.904;6.670;2023-05-20T14:13:37;5.93;;;5.32;;
15480;SDS011;7842;50.904;6.670;2023-05-20T14:16:03;5.40;;;4.80;;
15480;SDS011;7842;50.904;6.670;2023-05-20T14:18:28;5.35;;;4.85;;
15480;SDS011;7842;50.904;6.670;2023-05-20T14:20:54;5.63;;;4.90;;
15480;SDS011;7842;50.904;6.670;2023-05-20T14:23:20;5.22;;;4.70;;
15480;SDS011;7842;50.904;6.670;2023-05-20T14:25:46;5.28;;;4.18;;
15480;SDS011;7842;50.904;6.670;2023-05-20T14:28:12;5.30;;;4.63;;
15480;SDS011;7842;50.904;6.670;2023-05-20T14:30:37;5.40;;;4.78;;
15480;SDS011;7842;50.904;6.670;2023-05-20T14:33:03;6.30;;;5.50;;
15480;SDS011;7842;50.904;6.670;2023-05-20T14:35:29;5.63;;;4.60;;
15480;SDS011;7842;50.904;6.670;2023-05-20T14:37:54;5.45;;;4.60;;
15480;SDS011;7842;50.904;6.670;2023-05-20T14:40:20;5.63;;;4.80;;
15480;SDS011;7842;50.904;6.670;2023-05-20T14:42:45;5.53;;;4.68;;
15480;SDS011;7842;50.904;6.670;2023-05-20T14:45:11;5.20;;;4.70;;
15480;SDS011;7842;50.904;6.670;2023-05-20T14:47:37;5.60;;;5.00;;
15480;SDS011;7842;50.904;6.670;2023-05-20T14:50:04;5.03;;;4.53;;
15480;SDS011;7842;50.904;6.670;2023-05-20T14:52:30;4.93;;;4.50;;
15480;SDS011;7842;50.904;6.670;2023-05-20T14:54:56;5.82;;;4.90;;
15480;SDS011;7842;50.904;6.670;2023-05-20T14:57:24;5.43;;;4.93;;
15480;SDS011;7842;50.904;6.670;2023-05-20T14:59:50;5.50;;;4.53;;
15480;SDS011;7842;50.904;6.670;2023-05-20T15:02:17;4.85;;;4.45;;
15480;SDS011;7842;50.904;6.670;2023-05-20T15:04:43;5.22;;;4.63;;
15480;SDS011;7842;50.904;6.670;2023-05-20T15:07:10;4.90;;;4.40;;